TKY85 DTTJ-HEGN
Flight info
| Callsign | TKY85 |
|---|---|
| Flight time | N/A |
| Altitude | 41000 |
| Route | MITBA DCT TANLI A411 LOSUL M855 MMA P751 DASUM Y234 FYM M872 BOPOB |
| Aircraft | B736/M-SDE2E3FGHIRWXY/LB1 |
Departure
| Time | 2026-04-26 17:02 |
|---|---|
| Airport | Djerba Zarzis International Airport (DTTJ) |
Arrival
| Time | N/A |
|---|---|
| Airport | Hurghada International Airport (HEGN) |
| Time | Latitude | Longitude | Altitude | Speed | Heading |
|---|---|---|---|---|---|
| 2026-04-26 16:18 | 33.87318 | 10.77676 | 27 ft | 0 kts | 178° |
| 2026-04-26 16:53 | 33.87332 | 10.77675 | 26 ft | 4 kts | 178° |
| 2026-04-26 16:53 | 33.87354 | 10.77674 | 28 ft | 4 kts | 180° |
| 2026-04-26 16:54 | 33.87378 | 10.77680 | 27 ft | 4 kts | 229° |
| 2026-04-26 16:54 | 33.87386 | 10.77708 | 30 ft | 3 kts | 268° |
| 2026-04-26 16:54 | 33.87387 | 10.77713 | 28 ft | 0 kts | 268° |
| 2026-04-26 16:56 | 33.87386 | 10.77680 | 29 ft | 11 kts | 268° |
| 2026-04-26 16:56 | 33.87383 | 10.77560 | 25 ft | 15 kts | 269° |
| 2026-04-26 16:56 | 33.87380 | 10.77436 | 26 ft | 15 kts | 266° |
| 2026-04-26 16:57 | 33.87375 | 10.77315 | 26 ft | 14 kts | 262° |
| 2026-04-26 16:57 | 33.87366 | 10.77191 | 26 ft | 16 kts | 267° |
| 2026-04-26 16:57 | 33.87356 | 10.76854 | 23 ft | 23 kts | 268° |
| 2026-04-26 16:58 | 33.87352 | 10.76669 | 20 ft | 22 kts | 268° |
| 2026-04-26 16:58 | 33.87347 | 10.76545 | 19 ft | 22 kts | 268° |
| 2026-04-26 16:58 | 33.87340 | 10.76131 | 15 ft | 21 kts | 276° |
| 2026-04-26 16:59 | 33.87450 | 10.76052 | 19 ft | 21 kts | 2° |
| 2026-04-26 16:59 | 33.87506 | 10.76154 | 22 ft | 0 kts | 88° |
| 2026-04-26 17:01 | 33.87508 | 10.76278 | 20 ft | 45 kts | 88° |
| 2026-04-26 17:01 | 33.87524 | 10.76920 | 17 ft | 105 kts | 89° |
| 2026-04-26 17:01 | 33.87551 | 10.77955 | 120 ft | 135 kts | 86° |
| 2026-04-26 17:02 | 33.87592 | 10.79093 | 572 ft | 137 kts | 84° |
| 2026-04-26 17:02 | 33.87514 | 10.80243 | 957 ft | 147 kts | 115° |
| 2026-04-26 17:02 | 33.86701 | 10.80943 | 1339 ft | 152 kts | 174° |
| 2026-04-26 17:02 | 33.85660 | 10.81103 | 1782 ft | 155 kts | 146° |
| 2026-04-26 17:03 | 33.84937 | 10.82129 | 2198 ft | 176 kts | 120° |
| 2026-04-26 17:03 | 33.84223 | 10.83519 | 2442 ft | 211 kts | 121° |
| 2026-04-26 17:03 | 33.83390 | 10.85112 | 2712 ft | 237 kts | 122° |
| 2026-04-26 17:03 | 33.82472 | 10.86866 | 3119 ft | 260 kts | 122° |
| 2026-04-26 17:04 | 33.81493 | 10.88739 | 3877 ft | 266 kts | 122° |
| 2026-04-26 17:04 | 33.80504 | 10.90635 | 4765 ft | 269 kts | 122° |
| 2026-04-26 17:04 | 33.79502 | 10.92557 | 5581 ft | 274 kts | 122° |
| 2026-04-26 17:04 | 33.78472 | 10.94531 | 6368 ft | 281 kts | 123° |
| 2026-04-26 17:05 | 33.77422 | 10.96546 | 7190 ft | 287 kts | 123° |
| 2026-04-26 17:05 | 33.76361 | 10.98581 | 7979 ft | 295 kts | 124° |
| 2026-04-26 17:05 | 33.75260 | 11.00692 | 8923 ft | 298 kts | 123° |
| 2026-04-26 17:05 | 33.74146 | 11.02827 | 9873 ft | 304 kts | 124° |
| 2026-04-26 17:06 | 33.73018 | 11.04989 | 10714 ft | 312 kts | 123° |
| 2026-04-26 17:06 | 33.71826 | 11.07271 | 11231 ft | 331 kts | 123° |
| 2026-04-26 17:06 | 33.70584 | 11.09649 | 12068 ft | 337 kts | 123° |
| 2026-04-26 17:06 | 33.69330 | 11.12049 | 12972 ft | 342 kts | 123° |
| 2026-04-26 17:07 | 33.68054 | 11.14492 | 13870 ft | 348 kts | 123° |
| 2026-04-26 17:07 | 33.66753 | 11.16980 | 14702 ft | 354 kts | 123° |
| 2026-04-26 17:07 | 33.65446 | 11.19478 | 15547 ft | 360 kts | 123° |
| 2026-04-26 17:07 | 33.64104 | 11.22039 | 16391 ft | 365 kts | 123° |
| 2026-04-26 17:08 | 33.62737 | 11.24647 | 17252 ft | 371 kts | 123° |
| 2026-04-26 17:08 | 33.61349 | 11.27294 | 18104 ft | 377 kts | 123° |
| 2026-04-26 17:08 | 33.59960 | 11.29940 | 18875 ft | 382 kts | 123° |
| 2026-04-26 17:08 | 33.58534 | 11.32655 | 19600 ft | 388 kts | 123° |
| 2026-04-26 17:09 | 33.57089 | 11.35404 | 19979 ft | 390 kts | 123° |
| 2026-04-26 17:09 | 33.56104 | 11.37274 | 20096 ft | 393 kts | 123° |
| 2026-04-26 17:09 | 33.54160 | 11.40970 | 20107 ft | 393 kts | 123° |
| 2026-04-26 17:09 | 33.52703 | 11.43737 | 20114 ft | 392 kts | 123° |
| 2026-04-26 17:10 | 33.51242 | 11.46507 | 20159 ft | 396 kts | 123° |
| 2026-04-26 17:10 | 33.49780 | 11.49294 | 20726 ft | 402 kts | 122° |
| 2026-04-26 17:10 | 33.48522 | 11.52293 | 21605 ft | 404 kts | 114° |
| 2026-04-26 17:10 | 33.47469 | 11.55439 | 22416 ft | 409 kts | 112° |
| 2026-04-26 17:11 | 33.46441 | 11.58645 | 23111 ft | 416 kts | 112° |
| 2026-04-26 17:11 | 33.45399 | 11.61909 | 23784 ft | 422 kts | 112° |
| 2026-04-26 17:11 | 33.44333 | 11.65214 | 24397 ft | 427 kts | 113° |
| 2026-04-26 17:11 | 33.43246 | 11.68546 | 25046 ft | 431 kts | 113° |
| 2026-04-26 17:12 | 33.41019 | 11.75285 | 26215 ft | 443 kts | 113° |
| 2026-04-26 17:12 | 33.39872 | 11.78732 | 26836 ft | 447 kts | 114° |
| 2026-04-26 17:13 | 33.37542 | 11.85715 | 28036 ft | 455 kts | 114° |
| 2026-04-26 17:13 | 33.36360 | 11.89253 | 28613 ft | 459 kts | 114° |
| 2026-04-26 17:13 | 33.33970 | 11.96398 | 29681 ft | 469 kts | 115° |
| 2026-04-26 17:14 | 33.32749 | 12.00044 | 30207 ft | 474 kts | 115° |
| 2026-04-26 17:14 | 33.30275 | 12.07425 | 31172 ft | 479 kts | 114° |
| 2026-04-26 17:14 | 33.29052 | 12.11086 | 31675 ft | 481 kts | 112° |
| 2026-04-26 17:15 | 33.27555 | 12.18934 | 32564 ft | 488 kts | 97° |
| 2026-04-26 17:15 | 33.27158 | 12.22971 | 32986 ft | 490 kts | 97° |
| 2026-04-26 17:15 | 33.26785 | 12.27024 | 33381 ft | 492 kts | 96° |
| 2026-04-26 17:16 | 33.26406 | 12.31105 | 33765 ft | 494 kts | 97° |
| 2026-04-26 17:16 | 33.26011 | 12.35197 | 34158 ft | 495 kts | 97° |
| 2026-04-26 17:16 | 33.25606 | 12.39236 | 34560 ft | 494 kts | 97° |
| 2026-04-26 17:16 | 33.25184 | 12.43313 | 34974 ft | 493 kts | 97° |
| 2026-04-26 17:17 | 33.24756 | 12.47384 | 35346 ft | 493 kts | 97° |
| 2026-04-26 17:17 | 33.24325 | 12.51451 | 35667 ft | 494 kts | 97° |
| 2026-04-26 17:17 | 33.23889 | 12.55535 | 35978 ft | 495 kts | 97° |
| 2026-04-26 17:17 | 33.23453 | 12.59622 | 36319 ft | 495 kts | 97° |
| 2026-04-26 17:18 | 33.23022 | 12.63655 | 36658 ft | 495 kts | 97° |
| 2026-04-26 17:18 | 33.22584 | 12.67742 | 36976 ft | 495 kts | 97° |
| 2026-04-26 17:18 | 33.22145 | 12.71828 | 37279 ft | 496 kts | 97° |
| 2026-04-26 17:18 | 33.21704 | 12.75929 | 37593 ft | 496 kts | 98° |
| 2026-04-26 17:19 | 33.20817 | 12.84125 | 38150 ft | 498 kts | 98° |
| 2026-04-26 17:19 | 33.20376 | 12.88189 | 38442 ft | 498 kts | 98° |
| 2026-04-26 17:19 | 33.19928 | 12.92300 | 38749 ft | 498 kts | 98° |
| 2026-04-26 17:20 | 33.19479 | 12.96400 | 38981 ft | 498 kts | 98° |
| 2026-04-26 17:20 | 33.19332 | 12.97741 | 39051 ft | 498 kts | 98° |
| 2026-04-26 17:20 | 33.18575 | 13.04629 | 39400 ft | 499 kts | 98° |
| 2026-04-26 17:20 | 33.18127 | 13.08694 | 39624 ft | 499 kts | 98° |
| 2026-04-26 17:21 | 33.17672 | 13.12806 | 39834 ft | 499 kts | 98° |
| 2026-04-26 17:21 | 33.17213 | 13.16934 | 40015 ft | 500 kts | 98° |
| 2026-04-26 17:21 | 33.16754 | 13.21058 | 40201 ft | 501 kts | 98° |
| 2026-04-26 17:21 | 33.16293 | 13.25183 | 40408 ft | 501 kts | 98° |
| 2026-04-26 17:22 | 33.15831 | 13.29310 | 40608 ft | 501 kts | 98° |
| 2026-04-26 17:22 | 33.15373 | 13.33393 | 40807 ft | 501 kts | 98° |
| 2026-04-26 17:22 | 33.14906 | 13.37529 | 40993 ft | 502 kts | 98° |
| 2026-04-26 17:22 | 33.14420 | 13.41657 | 41115 ft | 504 kts | 98° |
| 2026-04-26 17:23 | 33.13396 | 13.50004 | 41128 ft | 511 kts | 98° |
| 2026-04-26 17:23 | 33.12344 | 13.58475 | 41126 ft | 518 kts | 98° |
| 2026-04-26 17:24 | 33.11296 | 13.66941 | 41119 ft | 519 kts | 98° |
| 2026-04-26 17:24 | 33.10238 | 13.75476 | 41119 ft | 520 kts | 98° |
| 2026-04-26 17:25 | 33.09355 | 13.82571 | 41122 ft | 520 kts | 98° |
| 2026-04-26 17:25 | 33.08288 | 13.91090 | 41121 ft | 519 kts | 98° |
| 2026-04-26 17:26 | 33.07214 | 13.99613 | 41118 ft | 518 kts | 98° |
| 2026-04-26 17:26 | 33.06142 | 14.08074 | 41118 ft | 518 kts | 98° |
| 2026-04-26 17:27 | 33.05057 | 14.16589 | 41119 ft | 517 kts | 99° |
| 2026-04-26 17:27 | 33.03977 | 14.25024 | 41117 ft | 517 kts | 98° |
| 2026-04-26 17:28 | 33.02884 | 14.33508 | 41124 ft | 517 kts | 99° |
| 2026-04-26 17:28 | 33.01793 | 14.41934 | 41121 ft | 517 kts | 99° |
| 2026-04-26 17:29 | 33.00868 | 14.49036 | 41122 ft | 517 kts | 99° |
| 2026-04-26 17:29 | 32.99581 | 14.58871 | 41126 ft | 517 kts | 99° |
| 2026-04-26 17:30 | 32.98465 | 14.67350 | 41129 ft | 517 kts | 99° |
| 2026-04-26 17:30 | 32.97344 | 14.75825 | 41127 ft | 517 kts | 99° |
| 2026-04-26 17:31 | 32.96225 | 14.84236 | 41129 ft | 517 kts | 99° |
| 2026-04-26 17:31 | 32.95093 | 14.92707 | 41135 ft | 517 kts | 99° |
| 2026-04-26 17:32 | 32.93981 | 15.01179 | 41129 ft | 517 kts | 98° |
| 2026-04-26 17:32 | 32.92897 | 15.09610 | 41131 ft | 518 kts | 98° |
| 2026-04-26 17:33 | 32.91802 | 15.18085 | 41133 ft | 518 kts | 98° |
| 2026-04-26 17:34 | 32.90139 | 15.30803 | 41131 ft | 518 kts | 98° |
| 2026-04-26 17:34 | 32.89021 | 15.39279 | 41143 ft | 518 kts | 98° |
| 2026-04-26 17:35 | 32.87898 | 15.47757 | 41138 ft | 518 kts | 98° |
| 2026-04-26 17:35 | 32.86776 | 15.56173 | 41145 ft | 518 kts | 99° |
| 2026-04-26 17:36 | 32.85641 | 15.64647 | 41144 ft | 518 kts | 98° |
| 2026-04-26 17:36 | 32.84499 | 15.73128 | 41144 ft | 518 kts | 98° |
| 2026-04-26 17:37 | 32.83357 | 15.81568 | 41150 ft | 518 kts | 98° |
| 2026-04-26 17:37 | 32.82211 | 15.89989 | 41150 ft | 518 kts | 99° |
| 2026-04-26 17:38 | 32.80474 | 16.02677 | 41157 ft | 518 kts | 98° |
| 2026-04-26 17:38 | 32.79308 | 16.11137 | 41155 ft | 518 kts | 99° |
| 2026-04-26 17:39 | 32.78135 | 16.19598 | 41156 ft | 518 kts | 99° |
| 2026-04-26 17:39 | 32.76967 | 16.27990 | 41160 ft | 518 kts | 99° |
| 2026-04-26 17:40 | 32.75977 | 16.35065 | 41159 ft | 517 kts | 99° |
| 2026-04-26 17:40 | 32.74596 | 16.44887 | 41161 ft | 517 kts | 99° |
| 2026-04-26 17:41 | 32.73403 | 16.53330 | 41163 ft | 517 kts | 99° |
| 2026-04-26 17:41 | 32.72211 | 16.61719 | 41164 ft | 517 kts | 99° |
| 2026-04-26 17:42 | 32.71006 | 16.70161 | 41173 ft | 517 kts | 99° |
| 2026-04-26 17:42 | 32.69804 | 16.78541 | 41169 ft | 518 kts | 99° |
| 2026-04-26 17:43 | 32.68588 | 16.86976 | 41165 ft | 518 kts | 99° |
| 2026-04-26 17:43 | 32.67369 | 16.95401 | 41169 ft | 518 kts | 99° |
| 2026-04-26 17:44 | 32.66569 | 17.03885 | 41169 ft | 516 kts | 89° |
| 2026-04-26 17:44 | 32.66636 | 17.12401 | 41170 ft | 516 kts | 87° |
| 2026-04-26 17:45 | 32.66748 | 17.20870 | 41172 ft | 516 kts | 87° |
| 2026-04-26 17:45 | 32.66799 | 17.29404 | 41171 ft | 517 kts | 88° |
| 2026-04-26 17:46 | 32.66811 | 17.37949 | 41169 ft | 517 kts | 88° |
| 2026-04-26 17:46 | 32.66814 | 17.46493 | 41168 ft | 518 kts | 88° |
| 2026-04-26 17:47 | 32.66814 | 17.53590 | 41170 ft | 518 kts | 88° |
| 2026-04-26 17:47 | 32.66811 | 17.63557 | 41171 ft | 518 kts | 88° |
| 2026-04-26 17:48 | 32.66802 | 17.72133 | 41172 ft | 518 kts | 88° |
| 2026-04-26 17:48 | 32.66787 | 17.80707 | 41190 ft | 519 kts | 88° |
| 2026-04-26 17:49 | 32.66767 | 17.89275 | 41185 ft | 519 kts | 88° |
| 2026-04-26 17:49 | 32.66741 | 17.97790 | 41175 ft | 519 kts | 88° |
| 2026-04-26 17:50 | 32.66672 | 18.06362 | 41171 ft | 519 kts | 92° |
| 2026-04-26 17:50 | 32.65323 | 18.14796 | 41191 ft | 520 kts | 106° |
| 2026-04-26 17:51 | 32.63254 | 18.23020 | 41175 ft | 520 kts | 107° |
| 2026-04-26 17:51 | 32.62914 | 18.24354 | 41174 ft | 520 kts | 107° |